Newark Valley, New York
Current Conditions -  °F | °C
As of 10:43 AM on Saturday 20 Dec 2014 (Local Time) from KBGM Reporting Station
Overcast Overcast  
Wind Chill: 17°   Ceiling: 1500
Heat Index: 25°   Visibility: 10mi
Dew Point: 19°   Wind: 7mph
Humidity: 78%   Direction: 310°NW
Pressure: 30.21"   Gusts: NA
Location:  42.22°N, 76.18°W
Report Text: KBGM 201543Z 31006KT 10SM OVC015 M04/M07 A3021 RMK AO2 T10391072
Loading
Personal Weather Stations






























Interactive Weather Map New forecast layout! Learn more

10-Day Weather Forecast

Advertisements
Track Severe Weather on mobile